This is the latest recevied weather packets stored in our database for station/object IU2PLZ-10. If no packets are shown the sender has not sent any weather packets the latest 10 day(s).
| Time | Temp. | Humidity | Pressure | Rain* | Wind** | Luminosity | Snow |
|---|---|---|---|---|---|---|---|
| 1778141726 | 25.56° C | 36% | 959.2 hPa | - | - | - | - |
| 1778140826 | 25° C | 37% | 959.5 hPa | - | - | - | - |
| 1778139926 | 25° C | 38% | 959.9 hPa | - | - | - | - |
| 1778139025 | 24.44° C | 38% | 960.1 hPa | - | - | - | - |
| 1778138125 | 23.33° C | 38% | 960.4 hPa | - | - | - | - |
| 1778137414 | 24.44° C | 38% | 960.7 hPa | - | - | - | - |
| 1778136514 | 23.89° C | 39% | 960.3 hPa | - | - | - | - |
| 1778135614 | 23.33° C | 39% | 960.1 hPa | - | - | - | - |
| 1778134714 | 22.22° C | 40% | 959.2 hPa | - | - | - | - |
| 1778133814 | 22.22° C | 41% | 959.7 hPa | - | - | - | - |
| 1778132913 | 21.67° C | 41% | 959.6 hPa | - | - | - | - |
| 1778132013 | 21.11° C | 41% | 959.4 hPa | - | - | - | - |
| 1778131113 | 21.11° C | 41% | 959.1 hPa | - | - | - | - |
| 1778130213 | 21.11° C | 41% | 958.9 hPa | - | - | - | - |
| 1778129313 | 20.56° C | 41% | 958.5 hPa | - | - | - | - |
| 1778128412 | 19.44° C | 42% | 957.7 hPa | - | - | - | - |
| 1778127512 | 20° C | 45% | 958.3 hPa | - | - | - | - |
| 1778126612 | 19.44° C | 46% | 958.2 hPa | - | - | - | - |
| 1778125712 | 18.89° C | 48% | 957.4 hPa | - | - | - | - |
| 1778124812 | 19.44° C | 49% | 958.5 hPa | - | - | - | - |
| 1778123912 | 18.33° C | 51% | 958 hPa | - | - | - | - |
| 1778123011 | 18.89° C | 52% | 959.2 hPa | - | - | - | - |
| 1778122111 | 18.89° C | 52% | 959.5 hPa | - | - | - | - |
| 1778121211 | 18.33° C | 53% | 958.8 hPa | - | - | - | - |
| 1778120311 | 18.89° C | 54% | 960 hPa | - | - | - | - |
* Rain since midnight (hover to see other rain measurements)
** Current wind speed in m/s (hover to see current wind gust speed)